Time;durP1;ratioP1;P1;durP2;ratioP2;P2;SDS_P1;SDS_P2;PMS_P1;PMS_P2;Temp;Humidity;BMP_temperature;BMP_pressure;BME280_temperature;BME280_humidity;BME280_pressure;Samples;Min_cycle;Max_cycle;Signal;HPM_P1;HPM_P2
2023/01/01 00:00:57;;;;;;;59.08;43.20;;;13.10;1.00;;;;;;7367092;19;20018;-74
2023/01/01 00:03:27;;;;;;;54.60;42.42;;;13.10;1.00;;;;;;7365971;19;20091;-74
2023/01/01 00:05:56;;;;;;;59.45;42.42;;;13.20;1.00;;;;;;7382903;19;20029;-74
2023/01/01 00:08:26;;;;;;;65.40;39.67;;;13.30;1.00;;;;;;7387394;19;20011;-74
2023/01/01 00:10:56;;;;;;;53.83;38.42;;;13.30;1.00;;;;;;7365967;19;20033;-74
2023/01/01 00:13:28;;;;;;;55.97;36.13;;;13.20;1.00;;;;;;7368624;19;20094;-75
2023/01/01 00:15:58;;;;;;;43.58;31.20;;;13.30;1.00;;;;;;7366678;19;20030;-74
2023/01/01 00:18:28;;;;;;;44.85;32.45;;;13.20;1.00;;;;;;7365905;19;20011;-74
2023/01/01 00:21:04;;;;;;;42.13;29.60;;;13.20;1.00;;;;;;7367621;19;20018;-75
2023/01/01 00:23:35;;;;;;;36.10;27.17;;;13.10;1.00;;;;;;7386933;19;20021;-74
2023/01/01 00:26:11;;;;;;;33.03;25.58;;;13.20;1.00;;;;;;7366647;19;20537;-75
2023/01/01 00:28:44;;;;;;;33.08;24.92;;;13.10;1.00;;;;;;7365294;19;20014;-75
2023/01/01 00:31:16;;;;;;;38.28;24.70;;;13.20;1.00;;;;;;7366237;19;20363;-74
2023/01/01 00:33:47;;;;;;;33.40;22.65;;;13.00;1.00;;;;;;7366257;19;20019;-74
2023/01/01 00:36:18;;;;;;;34.60;24.13;;;13.10;1.00;;;;;;7366081;19;20491;-74
2023/01/01 00:38:49;;;;;;;35.88;24.73;;;13.20;1.00;;;;;;7386226;19;20102;-74
2023/01/01 00:41:19;;;;;;;35.15;26.08;;;13.10;1.00;;;;;;7366080;19;20514;-74
2023/01/01 00:43:52;;;;;;;38.40;27.48;;;13.00;1.00;;;;;;7364527;19;20026;-74
2023/01/01 00:46:21;;;;;;;37.00;25.02;;;13.10;1.00;;;;;;7366049;19;20011;-74
2023/01/01 00:48:51;;;;;;;33.13;23.38;;;13.10;1.00;;;;;;7364653;19;20105;-73
2023/01/01 00:51:21;;;;;;;31.25;20.85;;;13.10;1.00;;;;;;7365411;19;21176;-74
2023/01/01 00:53:51;;;;;;;24.70;17.23;;;13.10;1.00;;;;;;7387026;19;20018;-74
2023/01/01 00:56:21;;;;;;;20.67;15.07;;;13.10;1.00;;;;;;7363809;19;20015;-74
2023/01/01 00:58:53;;;;;;;17.45;13.13;;;13.10;1.00;;;;;;7363861;19;20749;-74
2023/01/01 01:01:30;;;;;;;19.85;13.10;;;13.30;1.00;;;;;;7366021;19;20395;-74
2023/01/01 01:04:00;;;;;;;16.23;11.00;;;13.40;1.00;;;;;;7366057;19;20019;-74
2023/01/01 01:06:30;;;;;;;14.18;10.75;;;13.30;1.00;;;;;;7365074;19;20028;-74
2023/01/01 01:09:00;;;;;;;16.33;11.32;;;13.30;1.00;;;;;;7363426;19;20070;-75
2023/01/01 01:11:30;;;;;;;13.07;10.07;;;13.30;1.00;;;;;;7386954;19;20021;-74
2023/01/01 01:14:02;;;;;;;13.10;9.35;;;13.30;1.00;;;;;;7367397;19;20013;-74
2023/01/01 01:16:35;;;;;;;12.43;8.60;;;13.40;1.00;;;;;;7364944;19;20015;-74
2023/01/01 01:19:08;;;;;;;12.10;8.55;;;13.40;1.00;;;;;;7363070;19;20010;-74
2023/01/01 01:21:39;;;;;;;13.07;8.60;;;13.40;1.00;;;;;;7365107;19;20014;-74
2023/01/01 01:24:09;;;;;;;14.98;8.20;;;13.40;1.00;;;;;;7364060;19;20018;-75
2023/01/01 01:26:38;;;;;;;10.90;7.78;;;13.20;1.00;;;;;;7386245;19;20014;-75
2023/01/01 01:29:11;;;;;;;10.75;7.93;;;13.20;1.00;;;;;;7362079;19;20018;-74
2023/01/01 01:31:41;;;;;;;11.63;7.88;;;13.30;1.00;;;;;;7363959;19;20007;-74
2023/01/01 01:34:10;;;;;;;9.57;7.65;;;13.30;1.00;;;;;;7364625;19;20014;-75
2023/01/01 01:36:44;;;;;;;12.38;7.43;;;13.00;1.00;;;;;;7363981;19;20018;-75
2023/01/01 01:39:14;;;;;;;8.95;6.53;;;13.00;1.00;;;;;;7362907;19;20102;-74
2023/01/01 01:41:44;;;;;;;8.82;6.65;;;13.10;1.00;;;;;;7384768;19;20017;-75
2023/01/01 01:44:44;;;;;;;9.38;6.38;;;13.10;1.00;;;;;;7362337;19;20458;-75
2023/01/01 01:47:19;;;;;;;12.00;6.47;;;13.10;1.00;;;;;;7363190;19;20488;-74
2023/01/01 01:49:49;;;;;;;11.02;6.85;;;13.10;1.00;;;;;;7361341;19;20417;-74
2023/01/01 01:52:19;;;;;;;12.93;6.97;;;13.00;1.00;;;;;;7363599;19;20391;-75
2023/01/01 01:54:49;;;;;;;10.93;6.85;;;12.90;1.00;;;;;;7363438;19;20021;-74
2023/01/01 01:57:20;;;;;;;9.15;6.85;;;12.90;1.00;;;;;;7364223;19;20022;-74
2023/01/01 01:59:53;;;;;;;11.57;6.55;;;12.80;1.00;;;;;;7386720;19;20078;-75
2023/01/01 02:02:31;;;;;;;7.90;5.75;;;12.70;1.00;;;;;;7362828;19;20018;-76
2023/01/01 02:05:01;;;;;;;9.48;5.72;;;12.80;1.00;;;;;;7361443;19;20015;-75
2023/01/01 02:07:34;;;;;;;9.45;5.82;;;12.90;1.00;;;;;;7360544;19;20018;-74
2023/01/01 02:10:06;;;;;;;7.93;5.10;;;13.00;1.00;;;;;;7362364;19;20014;-74
2023/01/01 02:12:36;;;;;;;10.27;5.43;;;13.20;1.00;;;;;;7364835;19;20018;-75
2023/01/01 02:15:08;;;;;;;9.25;5.05;;;13.40;1.00;;;;;;7362454;19;20014;-74
2023/01/01 02:17:47;;;;;;;9.23;5.13;;;13.20;1.00;;;;;;7384085;19;20475;-75
2023/01/01 02:20:42;;;;;;;8.70;5.07;;;13.00;1.00;;;;;;7360465;19;20011;-74
2023/01/01 02:23:45;;;;;;;8.35;4.97;;;13.00;1.00;;;;;;7362513;19;20022;-75
2023/01/01 02:26:37;;;;;;;10.38;5.43;;;13.10;1.00;;;;;;7362078;19;20410;-75
2023/01/01 02:29:19;;;;;;;8.77;6.05;;;13.00;1.00;;;;;;7362385;19;20075;-75
2023/01/01 02:31:54;;;;;;;10.40;6.13;;;12.90;1.00;;;;;;7361870;19;20500;-75
2023/01/01 02:34:28;;;;;;;11.85;5.97;;;12.90;1.00;;;;;;7362588;19;20561;-75
2023/01/01 02:37:00;;;;;;;8.43;5.45;;;12.80;1.00;;;;;;7362975;19;20500;-74
2023/01/01 02:39:34;;;;;;;10.13;6.60;;;13.00;1.00;;;;;;7361538;19;20029;-74
2023/01/01 02:42:06;;;;;;;;;;;12.90;1.00;;;;;;7362261;19;20022;-75
2023/01/01 02:44:43;;;;;;;9.25;5.38;;;12.80;1.00;;;;;;7382893;19;19929;-74
2023/01/01 02:47:15;;;;;;;13.02;8.13;;;12.70;1.00;;;;;;7361767;19;20036;-75
2023/01/01 02:50:03;;;;;;;9.90;6.78;;;12.60;1.00;;;;;;7360052;19;20011;-74
2023/01/01 02:52:51;;;;;;;8.30;5.85;;;12.40;1.00;;;;;;7361628;19;20589;-74
2023/01/01 02:55:31;;;;;;;8.13;5.20;;;12.40;1.00;;;;;;7362434;19;20077;-75
2023/01/01 03:00:59;;;;;;;9.15;5.20;;;12.40;1.00;;;;;;7362206;19;20494;-75
2023/01/01 03:03:32;;;;;;;9.68;4.75;;;12.60;1.00;;;;;;7361990;19;20057;-75
2023/01/01 03:06:25;;;;;;;7.03;5.05;;;12.60;1.00;;;;;;7359608;19;20018;-75
2023/01/01 03:09:09;;;;;;;5.57;4.40;;;12.70;1.00;;;;;;7381762;19;20486;-74
2023/01/01 03:11:45;;;;;;;6.72;4.30;;;12.50;1.00;;;;;;7362132;19;20078;-74
2023/01/01 03:14:22;;;;;;;6.57;4.13;;;12.60;1.00;;;;;;7364491;19;20018;-75
2023/01/01 03:17:02;;;;;;;9.20;4.75;;;12.60;1.00;;;;;;7360911;19;20078;-73
2023/01/01 03:19:37;;;;;;;6.47;4.13;;;12.80;1.00;;;;;;7370767;19;20021;-75
2023/01/01 03:22:10;;;;;;;8.10;4.30;;;12.60;1.00;;;;;;7375194;19;20086;-75
2023/01/01 03:24:45;;;;;;;6.60;4.30;;;12.70;1.00;;;;;;7375672;19;20371;-74
2023/01/01 03:27:20;;;;;;;6.07;3.60;;;12.80;1.00;;;;;;7375140;19;20102;-75
2023/01/01 03:29:53;;;;;;;6.15;3.65;;;12.70;1.00;;;;;;7395466;19;20057;-74
2023/01/01 03:32:59;;;;;;;7.53;3.80;;;12.70;1.00;;;;;;7374627;19;20021;-75
2023/01/01 03:35:22;;;;;;;5.15;3.00;;;12.70;1.00;;;;;;7374449;19;20031;-75
2023/01/01 03:37:55;;;;;;;6.88;3.80;;;12.70;1.00;;;;;;7374762;19;20723;-75
2023/01/01 03:40:25;;;;;;;5.55;3.55;;;12.90;1.00;;;;;;7373582;19;20010;-75
2023/01/01 03:42:59;;;;;;;6.75;3.28;;;12.70;1.00;;;;;;7374161;19;20017;-75
2023/01/01 03:45:34;;;;;;;7.63;3.22;;;12.80;1.00;;;;;;7374309;19;20078;-75
2023/01/01 03:48:08;;;;;;;7.40;3.53;;;12.70;1.00;;;;;;7374261;19;20479;-76
2023/01/01 03:50:46;;;;;;;6.20;3.27;;;12.50;1.00;;;;;;7397135;19;20015;-75
2023/01/01 03:53:22;;;;;;;8.32;3.67;;;12.40;1.00;;;;;;7373315;19;20007;-76
2023/01/01 03:56:04;;;;;;;5.45;3.33;;;12.40;1.00;;;;;;7373872;19;20015;-76
2023/01/01 03:58:42;;;;;;;10.60;4.45;;;12.60;1.00;;;;;;7372057;19;20019;-75
2023/01/01 04:01:17;;;;;;;6.13;3.50;;;12.50;1.00;;;;;;7374700;19;20031;-75
2023/01/01 04:03:50;;;;;;;6.72;3.80;;;12.60;1.00;;;;;;7373702;19;20087;-75
2023/01/01 04:06:20;;;;;;;5.47;3.72;;;12.50;1.00;;;;;;7373009;19;20018;-74
2023/01/01 04:08:52;;;;;;;6.15;3.58;;;12.40;1.00;;;;;;7394341;19;20447;-74
2023/01/01 04:14:08;;;;;;;5.35;3.08;;;12.60;1.00;;;;;;7376315;19;20015;-74
2023/01/01 04:16:38;;;;;;;5.97;3.47;;;12.50;1.00;;;;;;7373173;19;20014;-74
2023/01/01 04:19:11;;;;;;;8.48;3.58;;;12.40;1.00;;;;;;7371191;19;20011;-74
2023/01/01 04:21:41;;;;;;;10.88;3.70;;;12.40;1.00;;;;;;7373587;19;20016;-75
2023/01/01 04:24:11;;;;;;;5.03;3.10;;;12.30;1.00;;;;;;7373618;19;20014;-75
2023/01/01 04:26:40;;;;;;;5.88;3.50;;;12.40;1.00;;;;;;7392792;19;20018;-74
2023/01/01 04:29:10;;;;;;;8.18;3.92;;;12.30;1.00;;;;;;7370204;19;20007;-75
2023/01/01 04:31:40;;;;;;;6.20;3.40;;;12.30;1.00;;;;;;7364602;19;20426;-74
2023/01/01 04:34:12;;;;;;;5.90;3.30;;;12.40;1.00;;;;;;7366027;19;20022;-74
2023/01/01 04:36:42;;;;;;;6.95;3.17;;;12.30;1.00;;;;;;7365445;19;20018;-75
2023/01/01 04:39:12;;;;;;;6.90;3.60;;;12.30;1.00;;;;;;7364428;19;20014;-77
2023/01/01 04:41:42;;;;;;;4.32;3.30;;;12.30;1.00;;;;;;7388014;19;20419;-74
2023/01/01 04:44:12;;;;;;;3.97;2.95;;;12.40;1.00;;;;;;7365193;19;20018;-74
2023/01/01 04:46:41;;;;;;;6.57;2.95;;;12.40;1.00;;;;;;7364869;19;20014;-76
2023/01/01 04:49:14;;;;;;;6.70;2.90;;;12.40;1.00;;;;;;7365984;19;20033;-74
2023/01/01 04:51:44;;;;;;;6.30;2.67;;;12.50;1.00;;;;;;7365679;19;20054;-74
2023/01/01 04:54:14;;;;;;;7.68;3.55;;;12.60;1.00;;;;;;7365451;19;20021;-75
2023/01/01 04:56:43;;;;;;;3.95;2.90;;;12.60;1.00;;;;;;7386847;19;20014;-74
2023/01/01 04:59:13;;;;;;;7.47;3.50;;;12.50;1.00;;;;;;7362978;19;20011;-74
2023/01/01 05:01:43;;;;;;;5.68;2.88;;;12.60;1.00;;;;;;7364971;19;20034;-74
2023/01/01 05:04:18;;;;;;;6.80;3.28;;;12.70;1.00;;;;;;7364988;19;20022;-74
2023/01/01 05:06:48;;;;;;;4.90;3.00;;;12.60;1.00;;;;;;7364561;19;20086;-74
2023/01/01 05:09:17;;;;;;;5.03;3.08;;;12.60;1.00;;;;;;7363561;19;20019;-75
2023/01/01 05:11:47;;;;;;;5.32;2.90;;;12.50;1.00;;;;;;7387800;19;20015;-74
2023/01/01 05:14:17;;;;;;;6.20;3.15;;;12.60;1.00;;;;;;7367600;19;20490;-74
2023/01/01 05:16:47;;;;;;;4.35;2.97;;;12.60;1.00;;;;;;7364350;19;20082;-74
2023/01/01 05:19:19;;;;;;;7.40;2.90;;;12.50;1.00;;;;;;7362817;19;20030;-75
2023/01/01 05:21:49;;;;;;;4.40;2.80;;;12.40;1.00;;;;;;7364862;19;20073;-74
2023/01/01 05:24:19;;;;;;;6.43;3.17;;;12.30;1.00;;;;;;7364505;19;20026;-75
2023/01/01 05:26:49;;;;;;;5.13;2.83;;;12.40;1.00;;;;;;7384684;19;20355;-75
2023/01/01 05:29:21;;;;;;;11.50;3.55;;;12.30;1.00;;;;;;7362625;19;20025;-75
2023/01/01 05:31:51;;;;;;;8.02;3.15;;;12.30;1.00;;;;;;7363885;19;20039;-75
2023/01/01 05:34:24;;;;;;;4.38;2.90;;;12.20;1.00;;;;;;7364202;19;20010;-73
2023/01/01 05:36:54;;;;;;;5.95;2.90;;;12.20;1.00;;;;;;7364520;19;20010;-74
2023/01/01 05:39:24;;;;;;;7.80;2.97;;;12.10;1.00;;;;;;7362672;19;20034;-74
2023/01/01 05:41:54;;;;;;;4.32;2.58;;;12.20;1.00;;;;;;7385403;19;20027;-74
2023/01/01 05:44:24;;;;;;;4.00;2.80;;;12.20;1.00;;;;;;7365770;19;20014;-74
2023/01/01 05:46:54;;;;;;;4.75;2.85;;;12.20;1.00;;;;;;7362399;19;20114;-75
2023/01/01 05:49:27;;;;;;;5.85;2.67;;;12.20;1.00;;;;;;7362088;19;20010;-74
2023/01/01 05:51:57;;;;;;;4.50;2.60;;;12.50;1.00;;;;;;7363936;19;20010;-75
2023/01/01 05:54:26;;;;;;;5.63;2.28;;;12.40;1.00;;;;;;7363245;19;20029;-74
2023/01/01 05:56:56;;;;;;;6.50;2.60;;;12.50;1.00;;;;;;7384812;19;20021;-75
2023/01/01 05:59:26;;;;;;;5.68;2.47;;;12.40;1.00;;;;;;7361531;19;20348;-74
2023/01/01 06:01:56;;;;;;;7.30;2.63;;;12.30;1.00;;;;;;7363186;19;20014;-75
2023/01/01 06:04:28;;;;;;;4.20;2.50;;;12.20;1.00;;;;;;7363386;19;20015;-74
2023/01/01 06:06:58;;;;;;;2.95;2.00;;;12.20;1.00;;;;;;7362997;19;20026;-75
2023/01/01 06:09:28;;;;;;;3.95;2.53;;;12.40;1.00;;;;;;7361683;19;20450;-75
2023/01/01 06:11:58;;;;;;;3.33;2.03;;;12.40;1.00;;;;;;7386564;19;20007;-75
2023/01/01 06:14:27;;;;;;;4.32;2.33;;;12.30;1.00;;;;;;7366006;19;20010;-75
2023/01/01 06:16:57;;;;;;;5.20;2.20;;;12.30;1.00;;;;;;7362840;19;20006;-75
2023/01/01 06:19:30;;;;;;;3.47;1.90;;;12.30;1.00;;;;;;7360476;19;20038;-75
2023/01/01 06:21:59;;;;;;;5.97;2.42;;;12.40;1.00;;;;;;7363466;19;20014;-75
2023/01/01 06:24:29;;;;;;;4.70;2.40;;;12.30;1.00;;;;;;7361863;19;20362;-75
2023/01/01 06:27:07;;;;;;;3.97;2.17;;;12.30;1.00;;;;;;7361688;19;20018;-75
2023/01/01 06:29:37;;;;;;;4.10;2.30;;;12.20;1.00;;;;;;7381496;19;20031;-75
2023/01/01 06:32:07;;;;;;;2.88;2.00;;;12.30;1.00;;;;;;7361901;19;20033;-74
2023/01/01 06:34:39;;;;;;;3.55;2.30;;;12.30;1.00;;;;;;7362369;19;20017;-74
2023/01/01 06:37:09;;;;;;;5.53;2.33;;;12.20;1.00;;;;;;7362804;19;20014;-74
2023/01/01 06:39:39;;;;;;;7.25;2.60;;;12.10;1.00;;;;;;7362883;19;20023;-74
2023/01/01 06:42:08;;;;;;;3.28;2.30;;;12.00;1.00;;;;;;7365641;19;20022;-75
2023/01/01 06:44:38;;;;;;;3.65;2.55;;;12.00;1.00;;;;;;7383326;19;20018;-75
2023/01/01 06:47:09;;;;;;;6.45;2.65;;;12.00;1.00;;;;;;7360549;19;20014;-75
2023/01/01 06:49:41;;;;;;;4.47;2.55;;;12.10;1.00;;;;;;7360083;19;20502;-75
2023/01/01 06:52:11;;;;;;;4.70;2.95;;;12.10;1.00;;;;;;7361251;19;20011;-75
2023/01/01 06:54:41;;;;;;;5.95;2.78;;;12.00;1.00;;;;;;7359305;19;20044;-74
2023/01/01 06:57:11;;;;;;;4.47;2.80;;;12.10;1.00;;;;;;7361587;19;20019;-75
2023/01/01 06:59:40;;;;;;;5.25;2.60;;;12.00;1.00;;;;;;7381075;19;20607;-74
2023/01/01 07:02:12;;;;;;;6.45;3.30;;;12.00;1.00;;;;;;7361279;19;20022;-74
2023/01/01 07:04:45;;;;;;;6.82;3.20;;;12.00;1.00;;;;;;7361450;19;20021;-75
2023/01/01 07:07:15;;;;;;;5.65;3.20;;;11.90;1.00;;;;;;7359789;19;20011;-74
2023/01/01 07:09:45;;;;;;;4.70;2.85;;;11.80;1.00;;;;;;7359959;19;20248;-74
2023/01/01 07:12:14;;;;;;;5.95;2.85;;;11.90;1.00;;;;;;7362642;19;20367;-74
2023/01/01 07:14:44;;;;;;;6.80;3.45;;;12.00;1.00;;;;;;7386470;19;20018;-75
2023/01/01 07:17:14;;;;;;;6.78;3.50;;;12.10;1.00;;;;;;7360300;19;20391;-74
2023/01/01 07:19:46;;;;;;;6.78;3.58;;;12.10;1.00;;;;;;7358702;19;20010;-74
2023/01/01 07:22:16;;;;;;;4.97;3.03;;;12.20;1.00;;;;;;7361310;19;20025;-74
2023/01/01 07:24:46;;;;;;;5.97;3.30;;;12.10;1.00;;;;;;7360820;19;20038;-75
2023/01/01 07:27:16;;;;;;;7.15;3.10;;;12.20;1.00;;;;;;7360074;19;20017;-75
2023/01/01 07:29:45;;;;;;;4.30;2.72;;;12.30;1.00;;;;;;7379966;19;20021;-75
2023/01/01 07:32:15;;;;;;;5.32;3.47;;;12.30;1.00;;;;;;7360099;19;20011;-74
2023/01/01 07:34:48;;;;;;;8.50;3.22;;;12.40;1.00;;;;;;7361788;19;20014;-74
2023/01/01 07:37:19;;;;;;;7.78;3.83;;;12.30;1.00;;;;;;7362903;19;20117;-75
2023/01/01 07:39:49;;;;;;;4.80;3.38;;;12.30;1.00;;;;;;7359155;19;20006;-74
2023/01/01 07:42:19;;;;;;;6.20;3.50;;;12.20;1.00;;;;;;7360074;19;20042;-74
2023/01/01 07:44:49;;;;;;;6.00;3.22;;;12.20;1.00;;;;;;7381422;19;20471;-76
2023/01/01 07:47:22;;;;;;;5.38;3.20;;;12.30;1.00;;;;;;7359167;19;20038;-75
2023/01/01 07:49:55;;;;;;;4.95;2.97;;;12.30;1.00;;;;;;7358172;19;20011;-75
2023/01/01 07:52:25;;;;;;;7.03;3.35;;;12.30;1.00;;;;;;7360720;19;20022;-75
2023/01/01 07:54:55;;;;;;;8.25;3.20;;;12.40;1.00;;;;;;7360073;19;20419;-75
2023/01/01 07:57:24;;;;;;;5.68;3.28;;;12.40;1.00;;;;;;7360143;19;20574;-75
2023/01/01 07:59:54;;;;;;;6.22;2.80;;;12.40;1.00;;;;;;7379135;19;20015;-74
2023/01/01 08:02:24;;;;;;;4.75;3.20;;;12.50;1.00;;;;;;7359591;19;20014;-75
2023/01/01 08:04:56;;;;;;;5.13;2.70;;;12.50;1.00;;;;;;7359958;19;20030;-75
2023/01/01 08:07:26;;;;;;;6.93;2.78;;;12.50;1.00;;;;;;7365704;19;20411;-73
2023/01/01 08:09:56;;;;;;;3.60;2.10;;;12.50;1.00;;;;;;7364953;19;20014;-75
2023/01/01 08:12:26;;;;;;;5.35;2.85;;;12.50;1.00;;;;;;7368832;19;20019;-75
2023/01/01 08:14:56;;;;;;;6.35;2.50;;;12.50;1.00;;;;;;7388262;19;20022;-75
2023/01/01 08:17:26;;;;;;;4.05;2.40;;;12.50;1.00;;;;;;7366448;19;20043;-74
2023/01/01 08:19:58;;;;;;;5.05;2.70;;;12.40;1.00;;;;;;7363546;19;20019;-75
2023/01/01 08:22:28;;;;;;;6.00;3.17;;;12.40;1.00;;;;;;7366894;19;20011;-75
2023/01/01 08:24:58;;;;;;;4.45;2.58;;;12.40;1.00;;;;;;7366463;19;20021;-75
2023/01/01 08:27:27;;;;;;;7.03;3.10;;;12.40;1.00;;;;;;7365839;19;20038;-74
2023/01/01 08:29:57;;;;;;;4.57;2.75;;;12.60;1.00;;;;;;7385117;19;20019;-73
2023/01/01 08:32:27;;;;;;;5.30;2.95;;;12.50;1.00;;;;;;7368392;19;20003;-75
2023/01/01 08:34:59;;;;;;;4.47;2.75;;;12.50;1.00;;;;;;7364878;19;20022;-75
2023/01/01 08:37:29;;;;;;;8.30;2.83;;;12.50;1.00;;;;;;7366196;19;20018;-74
2023/01/01 08:39:59;;;;;;;6.20;2.60;;;12.60;1.00;;;;;;7364528;19;20082;-74
2023/01/01 08:42:29;;;;;;;4.57;2.47;;;12.60;1.00;;;;;;7366071;19;20010;-75
2023/01/01 08:44:58;;;;;;;5.90;2.85;;;12.60;1.00;;;;;;7387202;19;20014;-75
2023/01/01 08:47:29;;;;;;;7.43;3.05;;;12.60;1.00;;;;;;7365072;19;20011;-75
2023/01/01 08:50:01;;;;;;;4.35;2.35;;;12.60;1.00;;;;;;7362556;19;20014;-75
2023/01/01 08:52:31;;;;;;;5.85;2.88;;;12.70;1.00;;;;;;7365823;19;20049;-75
2023/01/01 08:55:01;;;;;;;5.25;2.75;;;12.80;1.00;;;;;;7365859;19;20015;-75
2023/01/01 08:57:32;;;;;;;4.88;2.80;;;12.80;1.00;;;;;;7365336;19;20015;-75
2023/01/01 09:00:02;;;;;;;5.57;2.97;;;12.90;1.00;;;;;;7384618;19;20026;-74
2023/01/01 09:02:33;;;;;;;5.82;3.17;;;12.90;1.00;;;;;;7365289;19;20034;-75
2023/01/01 09:05:06;;;;;;;7.68;2.92;;;13.00;1.00;;;;;;7364616;19;20006;-75
2023/01/01 09:07:35;;;;;;;7.22;3.15;;;13.00;1.00;;;;;;7364275;19;20010;-75
2023/01/01 09:10:06;;;;;;;6.38;3.60;;;13.10;1.00;;;;;;7362206;19;20014;-74
2023/01/01 09:12:36;;;;;;;4.95;2.80;;;13.10;1.00;;;;;;7366894;19;20017;-75
2023/01/01 09:15:08;;;;;;;5.15;2.72;;;13.20;1.00;;;;;;7364728;19;20043;-75
2023/01/01 09:17:38;;;;;;;4.78;3.30;;;13.20;1.00;;;;;;7384835;19;20049;-74
2023/01/01 09:20:11;;;;;;;4.82;2.50;;;13.20;1.00;;;;;;7361632;19;20010;-75
2023/01/01 09:22:41;;;;;;;4.72;2.60;;;13.30;1.00;;;;;;7363419;19;20011;-74
2023/01/01 09:25:10;;;;;;;6.72;2.78;;;13.40;1.00;;;;;;7364559;19;20015;-74
2023/01/01 09:27:40;;;;;;;4.82;2.80;;;13.40;1.00;;;;;;7365098;19;20014;-74
2023/01/01 09:30:11;;;;;;;4.38;2.90;;;13.50;1.00;;;;;;7364483;19;20020;-75
2023/01/01 09:32:41;;;;;;;6.05;3.05;;;13.60;1.00;;;;;;7385106;19;20011;-74
2023/01/01 09:35:14;;;;;;;9.70;3.35;;;13.60;1.00;;;;;;7363393;19;20017;-74
2023/01/01 09:37:43;;;;;;;4.88;3.00;;;13.70;1.00;;;;;;7364220;19;20011;-74
2023/01/01 09:40:27;;;;;;;8.88;3.00;;;13.80;1.00;;;;;;7363047;19;20018;-74
2023/01/01 09:43:15;;;;;;;6.95;2.70;;;13.90;1.00;;;;;;7364248;19;20018;-75
2023/01/01 09:46:00;;;;;;;3.50;2.50;;;14.00;1.00;;;;;;7363478;19;20010;-75
2023/01/01 09:48:32;;;;;;;5.53;3.00;;;14.10;1.00;;;;;;7362463;19;20014;-75
2023/01/01 09:51:08;;;;;;;7.75;2.75;;;14.20;1.00;;;;;;7384766;19;20383;-75
2023/01/01 09:53:45;;;;;;;4.38;2.70;;;14.40;1.00;;;;;;7363352;19;20021;-75
2023/01/01 09:56:20;;;;;;;5.57;2.80;;;14.50;1.00;;;;;;7363302;19;20026;-74
2023/01/01 09:58:50;;;;;;;5.25;2.70;;;14.60;1.00;;;;;;7362098;19;20070;-74
2023/01/01 10:01:32;;;;;;;4.18;2.47;;;14.70;1.00;;;;;;7362457;19;20113;-74
2023/01/01 10:04:20;;;;;;;6.45;2.72;;;14.70;1.00;;;;;;7363624;19;20010;-75
2023/01/01 10:06:59;;;;;;;4.72;2.70;;;14.80;1.00;;;;;;7363262;19;20014;-75
2023/01/01 10:09:37;;;;;;;4.00;2.63;;;14.90;1.00;;;;;;7361814;19;20471;-75
2023/01/01 10:12:13;;;;;;;4.15;2.72;;;14.80;1.00;;;;;;7364276;19;20474;-76
2023/01/01 10:14:47;;;;;;;3.80;2.50;;;14.90;1.00;;;;;;7388405;19;20096;-75
2023/01/01 10:17:21;;;;;;;5.57;2.80;;;14.90;1.00;;;;;;7362013;19;20029;-75
2023/01/01 10:19:55;;;;;;;6.82;2.88;;;14.90;1.00;;;;;;7360559;19;20453;-76
2023/01/01 10:22:33;;;;;;;7.03;2.67;;;15.00;1.00;;;;;;7362435;19;20030;-75
2023/01/01 10:25:09;;;;;;;7.50;2.95;;;15.10;1.00;;;;;;7364825;19;20019;-75
2023/01/01 10:27:45;;;;;;;7.10;4.55;;;15.30;1.00;;;;;;7360654;19;20014;-75
2023/01/01 10:30:18;;;;;;;9.65;4.88;;;15.20;1.00;;;;;;7360273;19;20090;-75
2023/01/01 10:32:49;;;;;;;7.88;5.88;;;15.20;1.00;;;;;;7383312;19;20006;-75
2023/01/01 10:35:21;;;;;;;9.82;6.38;;;15.10;1.00;;;;;;7362155;19;20457;-76
2023/01/01 10:38:02;;;;;;;9.40;5.50;;;15.20;1.00;;;;;;7362408;19;20778;-74
2023/01/01 10:40:33;;;;;;;10.03;6.13;;;15.10;1.00;;;;;;7361115;19;20073;-74
2023/01/01 10:43:03;;;;;;;8.27;5.55;;;15.10;1.00;;;;;;7361999;19;20212;-75
2023/01/01 10:45:35;;;;;;;10.48;6.20;;;15.10;1.00;;;;;;7362529;19;20049;-74
2023/01/01 10:48:17;;;;;;;8.93;5.88;;;15.10;1.00;;;;;;7365074;19;20052;-75
2023/01/01 10:50:51;;;;;;;8.27;5.68;;;15.20;1.00;;;;;;7383249;19;20014;-75
2023/01/01 10:53:30;;;;;;;9.07;5.90;;;15.20;1.00;;;;;;7361306;19;20011;-74
2023/01/01 10:56:08;;;;;;;9.98;6.43;;;15.20;1.00;;;;;;7362116;19;20122;-74
2023/01/01 10:58:42;;;;;;;9.05;5.93;;;15.30;1.00;;;;;;7360468;19;20018;-75
2023/01/01 11:01:13;;;;;;;11.05;5.80;;;15.40;1.00;;;;;;7361912;19;20014;-75
2023/01/01 11:03:56;;;;;;;7.10;5.10;;;15.50;1.00;;;;;;7360520;19;20530;-75
2023/01/01 11:06:28;;;;;;;12.98;5.82;;;15.50;1.00;;;;;;7361626;19;20089;-75
2023/01/01 11:09:03;;;;;;;8.95;5.90;;;15.50;1.00;;;;;;7380587;19;20039;-75
2023/01/01 11:11:41;;;;;;;7.57;5.32;;;15.60;1.00;;;;;;7361460;19;20017;-75
2023/01/01 11:14:21;;;;;;;8.73;5.68;;;15.70;1.00;;;;;;7364085;19;20406;-75
2023/01/01 11:16:51;;;;;;;8.63;5.78;;;15.70;1.00;;;;;;7359968;19;20017;-75
2023/01/01 11:19:26;;;;;;;9.70;4.78;;;15.70;1.00;;;;;;7360381;19;20058;-76
2023/01/01 11:21:56;;;;;;;8.35;4.50;;;15.80;1.00;;;;;;7363074;19;20010;-74
2023/01/01 11:24:30;;;;;;;8.57;4.13;;;15.90;1.00;;;;;;7360595;19;20046;-75
2023/01/01 11:27:18;;;;;;;5.95;3.83;;;16.00;1.00;;;;;;7381860;19;20542;-74
2023/01/01 11:29:50;;;;;;;4.40;3.17;;;16.00;1.00;;;;;;7358760;19;20490;-75
2023/01/01 11:32:23;;;;;;;4.50;2.97;;;16.10;1.00;;;;;;7359810;19;20044;-76
2023/01/01 11:34:59;;;;;;;7.35;2.95;;;16.20;1.00;;;;;;7360449;19;20018;-74
2023/01/01 11:37:34;;;;;;;4.22;2.65;;;16.30;1.00;;;;;;7360544;19;20074;-74
2023/01/01 11:40:18;;;;;;;5.05;2.83;;;16.30;1.00;;;;;;7362776;19;20039;-74
2023/01/01 11:42:50;;;;;;;5.50;2.42;;;16.40;1.00;;;;;;7367444;19;20007;-75
2023/01/01 11:45:29;;;;;;;6.75;2.58;;;16.50;1.00;;;;;;7367933;19;20058;-75
2023/01/01 11:48:14;;;;;;;5.25;2.35;;;16.40;1.00;;;;;;7367946;19;20021;-75
2023/01/01 11:50:51;;;;;;;5.70;2.63;;;16.50;1.00;;;;;;7386906;19;20018;-75
2023/01/01 11:53:31;;;;;;;5.65;2.70;;;16.60;1.00;;;;;;7366753;19;20010;-75
2023/01/01 11:56:09;;;;;;;4.80;2.60;;;16.60;1.00;;;;;;7367376;19;20483;-74
2023/01/01 11:58:45;;;;;;;5.38;2.50;;;16.60;1.00;;;;;;7366015;19;20537;-75
2023/01/01 12:01:21;;;;;;;6.47;2.28;;;16.60;1.00;;;;;;7367294;19;20022;-75
2023/01/01 12:03:56;;;;;;;8.00;3.20;;;16.70;1.00;;;;;;7366380;19;20124;-75
2023/01/01 12:06:32;;;;;;;6.03;2.28;;;16.60;1.00;;;;;;7367208;19;20030;-75
2023/01/01 12:09:08;;;;;;;5.05;2.83;;;16.60;1.00;;;;;;7386380;19;20509;-75
2023/01/01 12:11:53;;;;;;;4.53;2.30;;;16.60;1.00;;;;;;7368068;19;20014;-74
2023/01/01 12:14:30;;;;;;;8.40;3.25;;;16.60;1.00;;;;;;7370283;19;20020;-74
2023/01/01 12:17:04;;;;;;;4.78;2.40;;;16.60;1.00;;;;;;7367966;19;20018;-75
2023/01/01 12:19:41;;;;;;;5.07;2.80;;;16.50;1.00;;;;;;7365021;19;20489;-74
2023/01/01 12:22:18;;;;;;;5.18;2.63;;;16.60;1.00;;;;;;7367170;19;20354;-74
2023/01/01 12:24:49;;;;;;;8.68;2.60;;;16.70;1.00;;;;;;7366206;19;20019;-75
2023/01/01 12:27:38;;;;;;;6.00;2.78;;;16.70;1.00;;;;;;7366490;19;20371;-74
2023/01/01 12:30:16;;;;;;;4.65;2.60;;;16.70;1.00;;;;;;7363277;19;20467;-74
2023/01/01 12:33:10;;;;;;;5.03;2.40;;;16.80;1.00;;;;;;7387668;19;20014;-75
2023/01/01 12:35:51;;;;;;;6.50;2.63;;;16.70;1.00;;;;;;7365951;19;20010;-75
2023/01/01 12:38:36;;;;;;;7.40;2.80;;;16.60;1.00;;;;;;7364434;19;20010;-75
2023/01/01 12:41:13;;;;;;;6.22;2.70;;;16.60;1.00;;;;;;7365160;19;20019;-75
2023/01/01 12:43:56;;;;;;;6.20;2.38;;;16.60;1.00;;;;;;7365867;19;20010;-75
2023/01/01 12:46:47;;;;;;;6.07;2.78;;;16.70;1.00;;;;;;7365914;19;20707;-75
2023/01/01 12:49:36;;;;;;;8.23;2.85;;;16.70;1.00;;;;;;7363875;19;20094;-74
2023/01/01 12:52:18;;;;;;;4.68;2.35;;;16.60;1.00;;;;;;7364048;19;20452;-76
2023/01/01 12:55:16;;;;;;;4.93;2.20;;;16.60;1.00;;;;;;7365369;19;20057;-74
2023/01/01 12:57:50;;;;;;;4.97;2.30;;;16.60;1.00;;;;;;7365826;19;20086;-75
2023/01/01 13:00:22;;;;;;;7.53;2.20;;;16.60;1.00;;;;;;7363102;19;20470;-75
2023/01/01 13:02:54;;;;;;;4.65;2.20;;;16.60;1.00;;;;;;7386987;19;20102;-74
2023/01/01 13:05:28;;;;;;;2.85;1.90;;;16.60;1.00;;;;;;7365589;19;20030;-75
2023/01/01 13:08:04;;;;;;;5.63;2.45;;;16.60;1.00;;;;;;7364712;19;20010;-75
2023/01/01 13:10:37;;;;;;;9.02;2.25;;;16.60;1.00;;;;;;7362757;19;20018;-75
2023/01/01 13:13:07;;;;;;;8.00;2.40;;;16.70;1.00;;;;;;7364789;19;20017;-75
2023/01/01 13:15:51;;;;;;;6.03;2.42;;;16.70;1.00;;;;;;7366436;19;20010;-75
2023/01/01 13:18:27;;;;;;;5.53;2.30;;;16.60;1.00;;;;;;7363677;19;20019;-75
2023/01/01 13:21:03;;;;;;;6.25;2.20;;;16.50;1.00;;;;;;7386596;19;20042;-75
2023/01/01 13:24:11;;;;;;;8.38;2.92;;;16.60;1.00;;;;;;7364203;19;20077;-75
2023/01/01 13:26:43;;;;;;;8.30;2.58;;;16.60;1.00;;;;;;7364850;19;20053;-74
2023/01/01 13:29:35;;;;;;;9.52;2.78;;;16.60;1.00;;;;;;7362072;19;20014;-75
2023/01/01 13:32:10;;;;;;;9.25;2.45;;;16.50;1.00;;;;;;7364721;19;20034;-75
2023/01/01 13:35:19;;;;;;;6.07;2.17;;;16.50;1.00;;;;;;7363528;19;20537;-75